sensor_id;sensor_type;location;lat;lon;timestamp;P1;durP1;ratioP1;P2;durP2;ratioP2
7647;SDS011;3866;48.020;11.720;2023-05-15T00:01:35;8.27;;;7.27;;
7647;SDS011;3866;48.020;11.720;2023-05-15T00:04:02;10.60;;;8.70;;
7647;SDS011;3866;48.020;11.720;2023-05-15T00:06:31;10.07;;;8.20;;
7647;SDS011;3866;48.020;11.720;2023-05-15T00:08:58;9.37;;;8.33;;
7647;SDS011;3866;48.020;11.720;2023-05-15T00:11:24;11.57;;;9.63;;
7647;SDS011;3866;48.020;11.720;2023-05-15T00:13:52;12.27;;;9.50;;
7647;SDS011;3866;48.020;11.720;2023-05-15T00:16:18;12.27;;;9.20;;
7647;SDS011;3866;48.020;11.720;2023-05-15T00:18:45;12.67;;;10.07;;
7647;SDS011;3866;48.020;11.720;2023-05-15T00:21:12;13.07;;;10.77;;
7647;SDS011;3866;48.020;11.720;2023-05-15T00:23:40;13.77;;;9.93;;
7647;SDS011;3866;48.020;11.720;2023-05-15T00:26:07;12.40;;;10.07;;
7647;SDS011;3866;48.020;11.720;2023-05-15T00:28:34;12.47;;;9.80;;
7647;SDS011;3866;48.020;11.720;2023-05-15T00:31:01;13.07;;;10.97;;
7647;SDS011;3866;48.020;11.720;2023-05-15T00:33:28;14.10;;;11.23;;
7647;SDS011;3866;48.020;11.720;2023-05-15T00:35:55;14.60;;;11.47;;
7647;SDS011;3866;48.020;11.720;2023-05-15T00:38:22;14.03;;;10.57;;
7647;SDS011;3866;48.020;11.720;2023-05-15T00:40:50;13.53;;;11.10;;
7647;SDS011;3866;48.020;11.720;2023-05-15T00:43:18;12.20;;;10.50;;
7647;SDS011;3866;48.020;11.720;2023-05-15T00:45:46;15.50;;;11.60;;
7647;SDS011;3866;48.020;11.720;2023-05-15T00:48:14;16.90;;;11.93;;
7647;SDS011;3866;48.020;11.720;2023-05-15T00:50:42;14.77;;;10.60;;
7647;SDS011;3866;48.020;11.720;2023-05-15T00:53:09;13.10;;;11.30;;
7647;SDS011;3866;48.020;11.720;2023-05-15T00:55:36;13.57;;;11.13;;
7647;SDS011;3866;48.020;11.720;2023-05-15T00:58:06;15.90;;;11.63;;
7647;SDS011;3866;48.020;11.720;2023-05-15T01:00:34;12.43;;;10.63;;
7647;SDS011;3866;48.020;11.720;2023-05-15T01:03:01;11.40;;;9.63;;
7647;SDS011;3866;48.020;11.720;2023-05-15T01:05:29;11.73;;;9.90;;
7647;SDS011;3866;48.020;11.720;2023-05-15T01:08:00;15.77;;;10.63;;
7647;SDS011;3866;48.020;11.720;2023-05-15T01:10:33;12.33;;;9.97;;
7647;SDS011;3866;48.020;11.720;2023-05-15T01:13:01;13.87;;;11.03;;
7647;SDS011;3866;48.020;11.720;2023-05-15T01:15:31;12.67;;;10.10;;
7647;SDS011;3866;48.020;11.720;2023-05-15T01:17:58;16.03;;;10.63;;
7647;SDS011;3866;48.020;11.720;2023-05-15T01:20:25;15.40;;;10.67;;
7647;SDS011;3866;48.020;11.720;2023-05-15T01:22:54;13.30;;;10.83;;
7647;SDS011;3866;48.020;11.720;2023-05-15T01:25:36;12.53;;;10.50;;
7647;SDS011;3866;48.020;11.720;2023-05-15T01:28:12;13.17;;;10.33;;
7647;SDS011;3866;48.020;11.720;2023-05-15T01:30:44;14.70;;;10.73;;
7647;SDS011;3866;48.020;11.720;2023-05-15T01:33:15;15.07;;;11.60;;
7647;SDS011;3866;48.020;11.720;2023-05-15T01:35:47;14.97;;;12.17;;
7647;SDS011;3866;48.020;11.720;2023-05-15T01:38:23;16.50;;;11.60;;
7647;SDS011;3866;48.020;11.720;2023-05-15T01:40:56;16.03;;;11.70;;
7647;SDS011;3866;48.020;11.720;2023-05-15T01:43:29;16.50;;;11.10;;
7647;SDS011;3866;48.020;11.720;2023-05-15T01:45:58;16.03;;;12.27;;
7647;SDS011;3866;48.020;11.720;2023-05-15T01:48:26;16.23;;;12.17;;
7647;SDS011;3866;48.020;11.720;2023-05-15T01:50:56;15.60;;;12.00;;
7647;SDS011;3866;48.020;11.720;2023-05-15T01:53:26;16.50;;;13.13;;
7647;SDS011;3866;48.020;11.720;2023-05-15T01:55:55;17.60;;;13.07;;
7647;SDS011;3866;48.020;11.720;2023-05-15T01:58:23;16.70;;;12.73;;
7647;SDS011;3866;48.020;11.720;2023-05-15T02:00:53;18.40;;;13.80;;
7647;SDS011;3866;48.020;11.720;2023-05-15T02:03:21;19.13;;;14.00;;
7647;SDS011;3866;48.020;11.720;2023-05-15T02:05:48;19.83;;;13.27;;
7647;SDS011;3866;48.020;11.720;2023-05-15T02:08:17;18.33;;;13.93;;
7647;SDS011;3866;48.020;11.720;2023-05-15T02:10:46;19.10;;;13.37;;
7647;SDS011;3866;48.020;11.720;2023-05-15T02:13:14;18.50;;;13.30;;
7647;SDS011;3866;48.020;11.720;2023-05-15T02:15:41;17.80;;;13.73;;
7647;SDS011;3866;48.020;11.720;2023-05-15T02:18:09;17.13;;;12.70;;
7647;SDS011;3866;48.020;11.720;2023-05-15T02:20:36;18.77;;;13.57;;
7647;SDS011;3866;48.020;11.720;2023-05-15T02:23:03;16.77;;;12.27;;
7647;SDS011;3866;48.020;11.720;2023-05-15T02:25:33;16.00;;;12.90;;
7647;SDS011;3866;48.020;11.720;2023-05-15T02:28:09;17.30;;;13.40;;
7647;SDS011;3866;48.020;11.720;2023-05-15T02:30:50;13.93;;;11.17;;
7647;SDS011;3866;48.020;11.720;2023-05-15T02:33:27;17.73;;;11.33;;
7647;SDS011;3866;48.020;11.720;2023-05-15T02:36:01;16.93;;;11.60;;
7647;SDS011;3866;48.020;11.720;2023-05-15T02:38:32;15.83;;;11.37;;
7647;SDS011;3866;48.020;11.720;2023-05-15T02:41:02;17.57;;;12.10;;
7647;SDS011;3866;48.020;11.720;2023-05-15T02:43:31;14.77;;;11.47;;
7647;SDS011;3866;48.020;11.720;2023-05-15T02:46:00;16.03;;;11.60;;
7647;SDS011;3866;48.020;11.720;2023-05-15T02:48:29;16.10;;;11.77;;
7647;SDS011;3866;48.020;11.720;2023-05-15T02:50:57;17.77;;;11.87;;
7647;SDS011;3866;48.020;11.720;2023-05-15T02:53:24;16.07;;;11.33;;
7647;SDS011;3866;48.020;11.720;2023-05-15T02:55:51;16.53;;;12.27;;
7647;SDS011;3866;48.020;11.720;2023-05-15T02:58:17;16.00;;;12.10;;
7647;SDS011;3866;48.020;11.720;2023-05-15T03:00:44;15.23;;;11.37;;
7647;SDS011;3866;48.020;11.720;2023-05-15T03:03:11;20.70;;;12.57;;
7647;SDS011;3866;48.020;11.720;2023-05-15T03:05:39;14.80;;;11.67;;
7647;SDS011;3866;48.020;11.720;2023-05-15T03:08:06;16.07;;;11.67;;
7647;SDS011;3866;48.020;11.720;2023-05-15T03:10:33;17.37;;;12.23;;
7647;SDS011;3866;48.020;11.720;2023-05-15T03:13:01;18.37;;;11.73;;
7647;SDS011;3866;48.020;11.720;2023-05-15T03:15:28;16.67;;;11.63;;
7647;SDS011;3866;48.020;11.720;2023-05-15T03:17:54;14.43;;;11.00;;
7647;SDS011;3866;48.020;11.720;2023-05-15T03:20:21;13.33;;;10.50;;
7647;SDS011;3866;48.020;11.720;2023-05-15T03:22:49;14.30;;;10.87;;
7647;SDS011;3866;48.020;11.720;2023-05-15T03:25:16;14.37;;;11.00;;
7647;SDS011;3866;48.020;11.720;2023-05-15T03:27:43;12.20;;;9.63;;
7647;SDS011;3866;48.020;11.720;2023-05-15T03:30:10;15.23;;;10.07;;
7647;SDS011;3866;48.020;11.720;2023-05-15T03:32:37;13.77;;;10.30;;
7647;SDS011;3866;48.020;11.720;2023-05-15T03:35:04;14.60;;;9.27;;
7647;SDS011;3866;48.020;11.720;2023-05-15T03:37:31;11.30;;;9.80;;
7647;SDS011;3866;48.020;11.720;2023-05-15T03:40:00;13.50;;;9.23;;
7647;SDS011;3866;48.020;11.720;2023-05-15T03:42:27;13.97;;;9.97;;
7647;SDS011;3866;48.020;11.720;2023-05-15T03:44:54;13.90;;;9.63;;
7647;SDS011;3866;48.020;11.720;2023-05-15T03:47:21;11.43;;;8.83;;
7647;SDS011;3866;48.020;11.720;2023-05-15T03:49:48;16.53;;;11.23;;
7647;SDS011;3866;48.020;11.720;2023-05-15T03:52:14;18.20;;;10.73;;
7647;SDS011;3866;48.020;11.720;2023-05-15T03:54:41;12.77;;;9.00;;
7647;SDS011;3866;48.020;11.720;2023-05-15T03:57:10;12.27;;;9.27;;
7647;SDS011;3866;48.020;11.720;2023-05-15T03:59:37;12.10;;;9.73;;
7647;SDS011;3866;48.020;11.720;2023-05-15T04:02:04;11.83;;;9.37;;
7647;SDS011;3866;48.020;11.720;2023-05-15T04:04:31;12.97;;;9.03;;
7647;SDS011;3866;48.020;11.720;2023-05-15T04:06:58;13.03;;;9.37;;
7647;SDS011;3866;48.020;11.720;2023-05-15T04:09:25;10.60;;;8.50;;
7647;SDS011;3866;48.020;11.720;2023-05-15T04:11:52;10.27;;;8.60;;
7647;SDS011;3866;48.020;11.720;2023-05-15T04:14:20;11.37;;;8.87;;
7647;SDS011;3866;48.020;11.720;2023-05-15T04:16:47;11.37;;;8.90;;
7647;SDS011;3866;48.020;11.720;2023-05-15T04:19:14;13.20;;;9.00;;
7647;SDS011;3866;48.020;11.720;2023-05-15T04:21:41;12.13;;;8.97;;
7647;SDS011;3866;48.020;11.720;2023-05-15T04:24:08;9.83;;;7.93;;
7647;SDS011;3866;48.020;11.720;2023-05-15T04:26:35;11.10;;;8.43;;
7647;SDS011;3866;48.020;11.720;2023-05-15T04:29:02;12.67;;;9.43;;
7647;SDS011;3866;48.020;11.720;2023-05-15T04:31:30;14.43;;;9.47;;
7647;SDS011;3866;48.020;11.720;2023-05-15T04:33:58;13.70;;;10.30;;
7647;SDS011;3866;48.020;11.720;2023-05-15T04:36:25;13.33;;;9.27;;
7647;SDS011;3866;48.020;11.720;2023-05-15T04:38:52;13.07;;;9.57;;
7647;SDS011;3866;48.020;11.720;2023-05-15T04:41:19;14.33;;;9.80;;
7647;SDS011;3866;48.020;11.720;2023-05-15T04:43:46;13.73;;;10.30;;
7647;SDS011;3866;48.020;11.720;2023-05-15T04:46:13;12.57;;;9.87;;
7647;SDS011;3866;48.020;11.720;2023-05-15T04:48:41;14.00;;;10.50;;
7647;SDS011;3866;48.020;11.720;2023-05-15T04:51:08;13.63;;;10.43;;
7647;SDS011;3866;48.020;11.720;2023-05-15T04:53:35;12.33;;;10.10;;
7647;SDS011;3866;48.020;11.720;2023-05-15T04:56:02;13.77;;;10.00;;
7647;SDS011;3866;48.020;11.720;2023-05-15T04:58:29;16.40;;;10.73;;
7647;SDS011;3866;48.020;11.720;2023-05-15T05:00:56;14.73;;;11.27;;
7647;SDS011;3866;48.020;11.720;2023-05-15T05:03:23;15.83;;;11.60;;
7647;SDS011;3866;48.020;11.720;2023-05-15T05:05:52;17.57;;;11.57;;
7647;SDS011;3866;48.020;11.720;2023-05-15T05:08:19;16.77;;;11.90;;
7647;SDS011;3866;48.020;11.720;2023-05-15T05:10:45;15.00;;;12.00;;
7647;SDS011;3866;48.020;11.720;2023-05-15T05:13:12;14.97;;;11.60;;
7647;SDS011;3866;48.020;11.720;2023-05-15T05:15:39;16.60;;;12.03;;
7647;SDS011;3866;48.020;11.720;2023-05-15T05:18:06;17.73;;;11.83;;
7647;SDS011;3866;48.020;11.720;2023-05-15T05:20:33;16.67;;;12.03;;
7647;SDS011;3866;48.020;11.720;2023-05-15T05:23:02;15.80;;;11.97;;
7647;SDS011;3866;48.020;11.720;2023-05-15T05:25:28;15.53;;;11.30;;
7647;SDS011;3866;48.020;11.720;2023-05-15T05:27:55;19.57;;;12.10;;
7647;SDS011;3866;48.020;11.720;2023-05-15T05:30:22;18.20;;;14.03;;
7647;SDS011;3866;48.020;11.720;2023-05-15T05:32:49;17.37;;;12.30;;
7647;SDS011;3866;48.020;11.720;2023-05-15T05:35:16;19.03;;;12.43;;
7647;SDS011;3866;48.020;11.720;2023-05-15T05:37:43;16.23;;;13.33;;
7647;SDS011;3866;48.020;11.720;2023-05-15T05:40:11;15.90;;;13.43;;
7647;SDS011;3866;48.020;11.720;2023-05-15T05:42:38;15.77;;;13.37;;
7647;SDS011;3866;48.020;11.720;2023-05-15T05:45:06;17.43;;;12.47;;
7647;SDS011;3866;48.020;11.720;2023-05-15T05:47:33;15.80;;;11.70;;
7647;SDS011;3866;48.020;11.720;2023-05-15T05:50:00;16.07;;;11.83;;
7647;SDS011;3866;48.020;11.720;2023-05-15T05:52:27;16.67;;;12.10;;
7647;SDS011;3866;48.020;11.720;2023-05-15T05:54:55;15.80;;;11.77;;
7647;SDS011;3866;48.020;11.720;2023-05-15T05:57:23;15.53;;;12.47;;
7647;SDS011;3866;48.020;11.720;2023-05-15T05:59:50;17.47;;;12.33;;
7647;SDS011;3866;48.020;11.720;2023-05-15T06:02:17;15.47;;;11.57;;
7647;SDS011;3866;48.020;11.720;2023-05-15T06:04:43;16.13;;;12.07;;
7647;SDS011;3866;48.020;11.720;2023-05-15T06:07:11;15.13;;;11.30;;
7647;SDS011;3866;48.020;11.720;2023-05-15T06:09:38;15.93;;;11.73;;
7647;SDS011;3866;48.020;11.720;2023-05-15T06:12:05;14.57;;;11.37;;
7647;SDS011;3866;48.020;11.720;2023-05-15T06:14:34;14.73;;;11.53;;
7647;SDS011;3866;48.020;11.720;2023-05-15T06:17:01;16.57;;;12.27;;
7647;SDS011;3866;48.020;11.720;2023-05-15T06:19:28;16.67;;;11.37;;
7647;SDS011;3866;48.020;11.720;2023-05-15T06:21:55;15.03;;;11.93;;
7647;SDS011;3866;48.020;11.720;2023-05-15T06:24:22;15.17;;;11.47;;
7647;SDS011;3866;48.020;11.720;2023-05-15T06:26:49;16.03;;;12.23;;
7647;SDS011;3866;48.020;11.720;2023-05-15T06:29:16;15.93;;;11.53;;
7647;SDS011;3866;48.020;11.720;2023-05-15T06:31:44;15.73;;;11.27;;
7647;SDS011;3866;48.020;11.720;2023-05-15T06:34:11;14.70;;;12.07;;
7647;SDS011;3866;48.020;11.720;2023-05-15T06:36:38;14.53;;;11.30;;
7647;SDS011;3866;48.020;11.720;2023-05-15T06:39:05;13.93;;;10.83;;
7647;SDS011;3866;48.020;11.720;2023-05-15T06:41:34;16.87;;;11.90;;
7647;SDS011;3866;48.020;11.720;2023-05-15T06:44:01;13.87;;;11.27;;
7647;SDS011;3866;48.020;11.720;2023-05-15T06:46:28;15.73;;;11.33;;
7647;SDS011;3866;48.020;11.720;2023-05-15T06:48:56;14.67;;;10.87;;
7647;SDS011;3866;48.020;11.720;2023-05-15T06:51:23;14.47;;;11.47;;
7647;SDS011;3866;48.020;11.720;2023-05-15T06:53:50;12.97;;;11.03;;
7647;SDS011;3866;48.020;11.720;2023-05-15T06:56:17;13.73;;;10.17;;
7647;SDS011;3866;48.020;11.720;2023-05-15T06:58:44;16.27;;;11.37;;
7647;SDS011;3866;48.020;11.720;2023-05-15T07:01:11;13.17;;;10.20;;
7647;SDS011;3866;48.020;11.720;2023-05-15T07:03:38;14.60;;;10.57;;
7647;SDS011;3866;48.020;11.720;2023-05-15T07:06:08;11.80;;;10.00;;
7647;SDS011;3866;48.020;11.720;2023-05-15T07:08:35;13.10;;;10.20;;
7647;SDS011;3866;48.020;11.720;2023-05-15T07:11:02;12.77;;;10.23;;
7647;SDS011;3866;48.020;11.720;2023-05-15T07:13:29;15.50;;;10.07;;
7647;SDS011;3866;48.020;11.720;2023-05-15T07:15:56;12.77;;;9.70;;
7647;SDS011;3866;48.020;11.720;2023-05-15T07:18:23;12.30;;;9.47;;
7647;SDS011;3866;48.020;11.720;2023-05-15T07:20:49;11.37;;;9.73;;
7647;SDS011;3866;48.020;11.720;2023-05-15T07:23:18;11.07;;;9.53;;
7647;SDS011;3866;48.020;11.720;2023-05-15T07:25:44;11.37;;;9.40;;
7647;SDS011;3866;48.020;11.720;2023-05-15T07:28:11;10.63;;;8.63;;
7647;SDS011;3866;48.020;11.720;2023-05-15T07:30:39;11.50;;;7.77;;
7647;SDS011;3866;48.020;11.720;2023-05-15T07:33:06;9.70;;;7.17;;
7647;SDS011;3866;48.020;11.720;2023-05-15T07:35:33;9.27;;;7.80;;
7647;SDS011;3866;48.020;11.720;2023-05-15T07:38:00;10.63;;;8.17;;
7647;SDS011;3866;48.020;11.720;2023-05-15T07:40:28;9.67;;;7.40;;
7647;SDS011;3866;48.020;11.720;2023-05-15T07:42:55;8.03;;;7.07;;
7647;SDS011;3866;48.020;11.720;2023-05-15T07:45:22;8.30;;;7.40;;
7647;SDS011;3866;48.020;11.720;2023-05-15T07:47:49;10.67;;;7.40;;
7647;SDS011;3866;48.020;11.720;2023-05-15T07:50:16;9.27;;;6.37;;
7647;SDS011;3866;48.020;11.720;2023-05-15T07:52:43;12.97;;;8.90;;
7647;SDS011;3866;48.020;11.720;2023-05-15T07:55:10;7.30;;;5.83;;
7647;SDS011;3866;48.020;11.720;2023-05-15T07:57:38;7.87;;;6.33;;
7647;SDS011;3866;48.020;11.720;2023-05-15T08:00:06;6.97;;;5.67;;
7647;SDS011;3866;48.020;11.720;2023-05-15T08:02:37;6.10;;;5.50;;
7647;SDS011;3866;48.020;11.720;2023-05-15T08:05:04;6.10;;;4.90;;
7647;SDS011;3866;48.020;11.720;2023-05-15T08:07:32;6.67;;;5.13;;
7647;SDS011;3866;48.020;11.720;2023-05-15T08:09:59;5.97;;;5.30;;
7647;SDS011;3866;48.020;11.720;2023-05-15T08:12:28;5.57;;;4.70;;
7647;SDS011;3866;48.020;11.720;2023-05-15T08:14:56;5.33;;;4.67;;
7647;SDS011;3866;48.020;11.720;2023-05-15T08:17:23;5.20;;;4.70;;
7647;SDS011;3866;48.020;11.720;2023-05-15T08:19:50;5.07;;;4.57;;
7647;SDS011;3866;48.020;11.720;2023-05-15T08:22:18;4.70;;;4.30;;
7647;SDS011;3866;48.020;11.720;2023-05-15T08:24:45;4.77;;;4.27;;
7647;SDS011;3866;48.020;11.720;2023-05-15T08:27:13;5.00;;;4.10;;
7647;SDS011;3866;48.020;11.720;2023-05-15T08:29:39;4.07;;;3.67;;
7647;SDS011;3866;48.020;11.720;2023-05-15T08:32:08;4.40;;;4.00;;
7647;SDS011;3866;48.020;11.720;2023-05-15T08:34:35;5.13;;;3.70;;
7647;SDS011;3866;48.020;11.720;2023-05-15T08:37:02;3.50;;;3.17;;
7647;SDS011;3866;48.020;11.720;2023-05-15T08:39:30;4.37;;;3.70;;
7647;SDS011;3866;48.020;11.720;2023-05-15T08:41:57;3.90;;;3.53;;
7647;SDS011;3866;48.020;11.720;2023-05-15T08:44:30;3.93;;;3.63;;
7647;SDS011;3866;48.020;11.720;2023-05-15T08:46:58;3.90;;;3.33;;
7647;SDS011;3866;48.020;11.720;2023-05-15T08:49:30;5.20;;;3.70;;
7647;SDS011;3866;48.020;11.720;2023-05-15T08:52:02;3.90;;;3.10;;
7647;SDS011;3866;48.020;11.720;2023-05-15T08:54:30;4.70;;;2.37;;
7647;SDS011;3866;48.020;11.720;2023-05-15T08:56:57;3.60;;;2.40;;
7647;SDS011;3866;48.020;11.720;2023-05-15T08:59:25;5.07;;;3.00;;
7647;SDS011;3866;48.020;11.720;2023-05-15T09:01:52;2.87;;;2.23;;
7647;SDS011;3866;48.020;11.720;2023-05-15T09:04:20;2.60;;;2.40;;
7647;SDS011;3866;48.020;11.720;2023-05-15T09:06:48;4.23;;;2.30;;
7647;SDS011;3866;48.020;11.720;2023-05-15T09:09:15;2.93;;;2.70;;
7647;SDS011;3866;48.020;11.720;2023-05-15T09:11:46;2.60;;;2.30;;
7647;SDS011;3866;48.020;11.720;2023-05-15T09:14:13;3.10;;;2.23;;
7647;SDS011;3866;48.020;11.720;2023-05-15T09:16:40;2.47;;;2.27;;
7647;SDS011;3866;48.020;11.720;2023-05-15T09:19:08;3.23;;;2.70;;
7647;SDS011;3866;48.020;11.720;2023-05-15T09:21:36;4.40;;;3.10;;
7647;SDS011;3866;48.020;11.720;2023-05-15T09:24:17;3.83;;;2.50;;
7647;SDS011;3866;48.020;11.720;2023-05-15T09:26:46;4.50;;;2.90;;
7647;SDS011;3866;48.020;11.720;2023-05-15T09:29:26;3.97;;;3.53;;
7647;SDS011;3866;48.020;11.720;2023-05-15T09:31:55;5.10;;;4.10;;
7647;SDS011;3866;48.020;11.720;2023-05-15T09:34:27;4.30;;;3.90;;
7647;SDS011;3866;48.020;11.720;2023-05-15T09:36:55;4.93;;;4.43;;
7647;SDS011;3866;48.020;11.720;2023-05-15T09:39:24;5.23;;;4.37;;
7647;SDS011;3866;48.020;11.720;2023-05-15T09:41:51;7.80;;;4.70;;
7647;SDS011;3866;48.020;11.720;2023-05-15T09:44:18;4.83;;;4.43;;
7647;SDS011;3866;48.020;11.720;2023-05-15T09:46:49;4.67;;;4.10;;
7647;SDS011;3866;48.020;11.720;2023-05-15T09:49:17;4.57;;;4.17;;
7647;SDS011;3866;48.020;11.720;2023-05-15T09:51:44;4.63;;;4.20;;
7647;SDS011;3866;48.020;11.720;2023-05-15T09:54:14;4.50;;;4.10;;
7647;SDS011;3866;48.020;11.720;2023-05-15T09:56:44;5.20;;;4.43;;
7647;SDS011;3866;48.020;11.720;2023-05-15T09:59:13;4.70;;;3.80;;
7647;SDS011;3866;48.020;11.720;2023-05-15T10:01:43;5.07;;;4.37;;
7647;SDS011;3866;48.020;11.720;2023-05-15T10:04:11;5.70;;;5.10;;
7647;SDS011;3866;48.020;11.720;2023-05-15T10:06:39;5.47;;;4.90;;
7647;SDS011;3866;48.020;11.720;2023-05-15T10:09:06;4.93;;;4.53;;
7647;SDS011;3866;48.020;11.720;2023-05-15T10:11:34;5.80;;;5.30;;
7647;SDS011;3866;48.020;11.720;2023-05-15T10:14:04;5.30;;;4.80;;
7647;SDS011;3866;48.020;11.720;2023-05-15T10:16:33;4.77;;;4.27;;
7647;SDS011;3866;48.020;11.720;2023-05-15T10:19:02;5.27;;;4.67;;
7647;SDS011;3866;48.020;11.720;2023-05-15T10:21:30;4.70;;;4.30;;
7647;SDS011;3866;48.020;11.720;2023-05-15T10:23:58;5.57;;;4.63;;
7647;SDS011;3866;48.020;11.720;2023-05-15T10:26:28;5.50;;;4.97;;
7647;SDS011;3866;48.020;11.720;2023-05-15T10:29:02;5.57;;;4.63;;
7647;SDS011;3866;48.020;11.720;2023-05-15T10:31:35;4.70;;;4.13;;
7647;SDS011;3866;48.020;11.720;2023-05-15T10:34:02;4.87;;;3.70;;
7647;SDS011;3866;48.020;11.720;2023-05-15T10:36:30;4.83;;;4.27;;
7647;SDS011;3866;48.020;11.720;2023-05-15T10:38:57;4.40;;;4.00;;
7647;SDS011;3866;48.020;11.720;2023-05-15T10:41:27;5.87;;;4.43;;
7647;SDS011;3866;48.020;11.720;2023-05-15T10:43:57;5.53;;;3.80;;
7647;SDS011;3866;48.020;11.720;2023-05-15T10:46:26;4.13;;;3.73;;
7647;SDS011;3866;48.020;11.720;2023-05-15T10:48:55;4.97;;;4.47;;
7647;SDS011;3866;48.020;11.720;2023-05-15T10:51:23;5.63;;;4.67;;
7647;SDS011;3866;48.020;11.720;2023-05-15T10:53:51;5.00;;;4.10;;
7647;SDS011;3866;48.020;11.720;2023-05-15T10:56:25;4.50;;;4.10;;
7647;SDS011;3866;48.020;11.720;2023-05-15T10:58:57;4.70;;;4.30;;
7647;SDS011;3866;48.020;11.720;2023-05-15T11:01:34;4.10;;;3.47;;
7647;SDS011;3866;48.020;11.720;2023-05-15T11:04:05;3.93;;;3.53;;
7647;SDS011;3866;48.020;11.720;2023-05-15T11:06:37;5.47;;;4.03;;
7647;SDS011;3866;48.020;11.720;2023-05-15T11:11:59;4.77;;;3.83;;
7647;SDS011;3866;48.020;11.720;2023-05-15T11:14:28;4.40;;;4.00;;
7647;SDS011;3866;48.020;11.720;2023-05-15T11:16:59;1.90;;;1.80;;
7647;SDS011;3866;48.020;11.720;2023-05-15T11:19:31;2.57;;;2.37;;
7647;SDS011;3866;48.020;11.720;2023-05-15T11:22:00;3.17;;;2.97;;
7647;SDS011;3866;48.020;11.720;2023-05-15T11:24:29;4.67;;;3.93;;
7647;SDS011;3866;48.020;11.720;2023-05-15T11:26:59;6.57;;;4.27;;
7647;SDS011;3866;48.020;11.720;2023-05-15T11:29:27;5.63;;;3.73;;
7647;SDS011;3866;48.020;11.720;2023-05-15T11:31:54;4.17;;;3.70;;
7647;SDS011;3866;48.020;11.720;2023-05-15T11:34:32;4.90;;;4.20;;
7647;SDS011;3866;48.020;11.720;2023-05-15T11:37:00;3.97;;;3.43;;
7647;SDS011;3866;48.020;11.720;2023-05-15T11:39:28;4.50;;;4.10;;
7647;SDS011;3866;48.020;11.720;2023-05-15T11:41:55;4.53;;;4.10;;
7647;SDS011;3866;48.020;11.720;2023-05-15T11:44:22;5.33;;;4.80;;
7647;SDS011;3866;48.020;11.720;2023-05-15T11:46:49;5.60;;;5.10;;
7647;SDS011;3866;48.020;11.720;2023-05-15T11:49:17;4.37;;;3.97;;
7647;SDS011;3866;48.020;11.720;2023-05-15T11:51:47;4.67;;;3.80;;
7647;SDS011;3866;48.020;11.720;2023-05-15T11:54:16;4.60;;;4.20;;
7647;SDS011;3866;48.020;11.720;2023-05-15T11:56:43;5.00;;;4.20;;
7647;SDS011;3866;48.020;11.720;2023-05-15T11:59:11;5.73;;;4.50;;
7647;SDS011;3866;48.020;11.720;2023-05-15T12:01:40;5.20;;;4.70;;
7647;SDS011;3866;48.020;11.720;2023-05-15T12:04:10;4.67;;;4.27;;
7647;SDS011;3866;48.020;11.720;2023-05-15T12:06:38;5.10;;;4.60;;
7647;SDS011;3866;48.020;11.720;2023-05-15T12:09:10;6.30;;;5.30;;
7647;SDS011;3866;48.020;11.720;2023-05-15T12:11:40;5.07;;;4.57;;
7647;SDS011;3866;48.020;11.720;2023-05-15T12:14:12;5.87;;;5.27;;
7647;SDS011;3866;48.020;11.720;2023-05-15T12:16:39;5.93;;;5.27;;
7647;SDS011;3866;48.020;11.720;2023-05-15T12:19:06;6.83;;;5.47;;
7647;SDS011;3866;48.020;11.720;2023-05-15T12:21:34;5.97;;;4.63;;
7647;SDS011;3866;48.020;11.720;2023-05-15T12:24:09;8.90;;;5.07;;
7647;SDS011;3866;48.020;11.720;2023-05-15T12:26:37;8.70;;;4.80;;
7647;SDS011;3866;48.020;11.720;2023-05-15T12:29:04;5.70;;;5.10;;
7647;SDS011;3866;48.020;11.720;2023-05-15T12:31:32;7.33;;;5.43;;
7647;SDS011;3866;48.020;11.720;2023-05-15T12:34:00;6.57;;;5.20;;
7647;SDS011;3866;48.020;11.720;2023-05-15T12:36:27;5.80;;;5.30;;
7647;SDS011;3866;48.020;11.720;2023-05-15T12:38:55;5.43;;;4.87;;
7647;SDS011;3866;48.020;11.720;2023-05-15T12:41:26;7.00;;;5.40;;
7647;SDS011;3866;48.020;11.720;2023-05-15T12:43:53;5.93;;;5.30;;
7647;SDS011;3866;48.020;11.720;2023-05-15T12:46:21;5.97;;;5.37;;
7647;SDS011;3866;48.020;11.720;2023-05-15T12:48:48;5.37;;;4.47;;
7647;SDS011;3866;48.020;11.720;2023-05-15T12:51:15;5.47;;;4.93;;
7647;SDS011;3866;48.020;11.720;2023-05-15T12:53:43;5.47;;;4.97;;
7647;SDS011;3866;48.020;11.720;2023-05-15T12:56:14;7.93;;;5.30;;
7647;SDS011;3866;48.020;11.720;2023-05-15T12:58:42;5.90;;;5.30;;
7647;SDS011;3866;48.020;11.720;2023-05-15T13:01:09;6.40;;;5.77;;
7647;SDS011;3866;48.020;11.720;2023-05-15T13:03:36;5.37;;;4.87;;
7647;SDS011;3866;48.020;11.720;2023-05-15T13:06:04;4.87;;;4.27;;
7647;SDS011;3866;48.020;11.720;2023-05-15T13:08:32;6.70;;;5.10;;
7647;SDS011;3866;48.020;11.720;2023-05-15T13:11:04;7.10;;;4.80;;
7647;SDS011;3866;48.020;11.720;2023-05-15T13:13:45;4.27;;;3.83;;
7647;SDS011;3866;48.020;11.720;2023-05-15T13:16:16;4.57;;;4.07;;
7647;SDS011;3866;48.020;11.720;2023-05-15T13:18:44;5.67;;;4.30;;
7647;SDS011;3866;48.020;11.720;2023-05-15T13:21:11;6.47;;;4.27;;
7647;SDS011;3866;48.020;11.720;2023-05-15T13:23:38;5.10;;;4.40;;
7647;SDS011;3866;48.020;11.720;2023-05-15T13:26:05;4.43;;;4.03;;
7647;SDS011;3866;48.020;11.720;2023-05-15T13:28:32;5.87;;;4.33;;
7647;SDS011;3866;48.020;11.720;2023-05-15T13:31:00;6.20;;;5.60;;
7647;SDS011;3866;48.020;11.720;2023-05-15T13:33:27;7.63;;;6.17;;
7647;SDS011;3866;48.020;11.720;2023-05-15T13:35:54;7.17;;;5.57;;
7647;SDS011;3866;48.020;11.720;2023-05-15T13:38:22;5.83;;;5.10;;
7647;SDS011;3866;48.020;11.720;2023-05-15T13:40:49;6.83;;;5.90;;
7647;SDS011;3866;48.020;11.720;2023-05-15T13:43:16;7.13;;;5.60;;
7647;SDS011;3866;48.020;11.720;2023-05-15T13:45:43;6.90;;;5.60;;
7647;SDS011;3866;48.020;11.720;2023-05-15T13:48:11;8.73;;;5.67;;
7647;SDS011;3866;48.020;11.720;2023-05-15T13:50:38;7.03;;;5.00;;
7647;SDS011;3866;48.020;11.720;2023-05-15T13:53:07;5.70;;;5.10;;
7647;SDS011;3866;48.020;11.720;2023-05-15T13:55:34;5.17;;;4.67;;
7647;SDS011;3866;48.020;11.720;2023-05-15T13:58:01;5.27;;;4.40;;
7647;SDS011;3866;48.020;11.720;2023-05-15T14:00:28;5.40;;;4.90;;
7647;SDS011;3866;48.020;11.720;2023-05-15T14:02:55;5.03;;;4.23;;
7647;SDS011;3866;48.020;11.720;2023-05-15T14:05:23;5.20;;;4.07;;
7647;SDS011;3866;48.020;11.720;2023-05-15T14:07:50;5.97;;;4.73;;
7647;SDS011;3866;48.020;11.720;2023-05-15T14:10:17;5.33;;;4.70;;
7647;SDS011;3866;48.020;11.720;2023-05-15T14:12:44;4.57;;;4.10;;
7647;SDS011;3866;48.020;11.720;2023-05-15T14:15:11;4.57;;;4.17;;
7647;SDS011;3866;48.020;11.720;2023-05-15T14:17:38;4.77;;;4.33;;
7647;SDS011;3866;48.020;11.720;2023-05-15T14:20:06;4.73;;;4.33;;
7647;SDS011;3866;48.020;11.720;2023-05-15T14:22:35;5.13;;;4.63;;
7647;SDS011;3866;48.020;11.720;2023-05-15T14:25:02;4.57;;;4.17;;
7647;SDS011;3866;48.020;11.720;2023-05-15T14:27:30;4.37;;;3.97;;
7647;SDS011;3866;48.020;11.720;2023-05-15T14:29:57;3.23;;;2.93;;
7647;SDS011;3866;48.020;11.720;2023-05-15T14:32:24;3.70;;;3.30;;
7647;SDS011;3866;48.020;11.720;2023-05-15T14:34:51;2.87;;;2.37;;
7647;SDS011;3866;48.020;11.720;2023-05-15T14:37:17;2.97;;;2.77;;
7647;SDS011;3866;48.020;11.720;2023-05-15T14:39:46;3.47;;;3.10;;
7647;SDS011;3866;48.020;11.720;2023-05-15T14:42:13;2.80;;;2.60;;
7647;SDS011;3866;48.020;11.720;2023-05-15T14:44:41;4.80;;;2.47;;
7647;SDS011;3866;48.020;11.720;2023-05-15T14:47:08;3.30;;;3.00;;
7647;SDS011;3866;48.020;11.720;2023-05-15T14:49:36;4.10;;;3.20;;
7647;SDS011;3866;48.020;11.720;2023-05-15T14:52:04;4.27;;;3.67;;
7647;SDS011;3866;48.020;11.720;2023-05-15T14:54:32;4.67;;;3.17;;
7647;SDS011;3866;48.020;11.720;2023-05-15T14:57:01;4.07;;;3.30;;
7647;SDS011;3866;48.020;11.720;2023-05-15T14:59:28;4.10;;;3.53;;